LFSG 301030Z AUTO 06013KT 040V100 CAVOK 20/03 Q1020

ElémentsDécodage
LFSG Station météo située sur l'aérodrome de EPINAL Mirecourt
301030Z émis le 30 du mois à 10h30 UTC
AUTO Bulletin édité par un automate
06013KT vent du 060°, 13 noeuds
040V100 vent de direction variable entre 040° et 100°
CAVOK Ceiling And Visibility OK
- Visibilité de 10 Km ou plus
- Pas de nuage au-dessous de 1500m ou au-dessous de l'altitude minimale du secteur la plus élevée (si>1500m) et absence de CB
- pas de temps présent significatif
20/03 température 20°C, point de rosée 03°C
 soit une humidité relative de 32%
Q1020 la pression au niveau de la mer (QNH) est de 1020 hPa